createdAt,value
2023-05-10T00:01:30.902Z,100801.56
2023-05-10T00:03:32.540Z,100797.03
2023-05-10T00:05:34.121Z,100810.31
2023-05-10T00:07:35.827Z,100810.31
2023-05-10T00:09:37.445Z,100811.16
2023-05-10T00:11:39.032Z,100808.47
2023-05-10T00:13:41.281Z,100811.28
2023-05-10T00:15:42.833Z,100815.81
2023-05-10T00:17:44.704Z,100806.75
2023-05-10T00:19:46.389Z,100807.75
2023-05-10T00:21:48.252Z,100811.16
2023-05-10T00:23:49.976Z,100818.38
2023-05-10T00:25:51.533Z,100808.75
2023-05-10T00:27:53.128Z,100806.91
2023-05-10T00:29:54.776Z,100808.88
2023-05-10T00:31:57.168Z,100809.75
2023-05-10T00:33:58.784Z,100812.44
2023-05-10T00:36:00.411Z,100813.56
2023-05-10T00:38:01.990Z,100812.00
2023-05-10T00:40:03.845Z,100811.00
2023-05-10T00:42:05.549Z,100821.75
2023-05-10T00:44:07.387Z,100823.59
2023-05-10T00:46:09.036Z,100824.59
2023-05-10T00:48:10.630Z,100828.94
2023-05-10T00:50:12.176Z,100827.13
2023-05-10T00:52:14.124Z,100835.31
2023-05-10T00:54:16.289Z,100838.00
2023-05-10T00:56:18.197Z,100835.31
2023-05-10T00:58:19.734Z,100838.00
2023-05-10T01:00:21.597Z,100834.47
2023-05-10T01:02:23.256Z,100841.66
2023-05-10T01:04:26.510Z,100835.44
2023-05-10T01:06:28.680Z,100833.75
2023-05-10T01:08:30.361Z,100832.75
2023-05-10T01:10:32.181Z,100833.75
2023-05-10T01:12:36.719Z,100836.28
2023-05-10T01:14:38.596Z,100838.00
2023-05-10T01:16:41.792Z,100835.16
2023-05-10T01:18:44.156Z,100837.16
2023-05-10T01:20:48.056Z,100836.00
2023-05-10T01:23:03.310Z,100832.34
2023-05-10T01:25:16.850Z,100832.47
2023-05-10T01:28:01.953Z,100825.28
2023-05-10T01:30:36.587Z,100821.91
2023-05-10T01:32:41.324Z,100826.44
2023-05-10T01:35:02.036Z,100834.31
2023-05-10T01:37:16.838Z,100838.84
2023-05-10T01:39:23.817Z,100840.53
2023-05-10T01:41:30.847Z,100840.41
2023-05-10T01:43:58.089Z,100841.25
2023-05-10T01:46:11.982Z,100846.63
2023-05-10T01:48:15.639Z,100838.56
2023-05-10T01:50:24.087Z,100847.44
2023-05-10T01:52:38.876Z,100843.94
2023-05-10T01:54:44.229Z,100849.28
2023-05-10T01:56:48.312Z,100836.28
2023-05-10T01:58:50.863Z,100851.97
2023-05-10T02:00:53.514Z,100842.09
2023-05-10T02:02:56.029Z,100840.25
2023-05-10T02:04:58.172Z,100841.97
2023-05-10T02:06:59.999Z,100837.72
2023-05-10T02:09:02.939Z,100845.50
2023-05-10T02:11:06.315Z,100850.69
2023-05-10T02:13:08.768Z,100857.91
2023-05-10T02:15:13.013Z,100844.66
2023-05-10T02:17:15.381Z,100838.41
2023-05-10T02:19:18.082Z,100843.78
2023-05-10T02:21:21.638Z,100850.97
2023-05-10T02:23:24.624Z,100845.63
2023-05-10T02:25:26.737Z,100844.78
2023-05-10T02:27:28.720Z,100848.28
2023-05-10T02:29:31.201Z,100846.47
2023-05-10T02:31:34.024Z,100847.34
2023-05-10T02:33:36.439Z,100841.97
2023-05-10T02:35:39.276Z,100853.38
2023-05-10T02:37:41.021Z,100850.69
2023-05-10T02:39:44.994Z,100857.75
2023-05-10T02:41:47.929Z,100854.22
2023-05-10T02:43:53.511Z,100856.06
2023-05-10T02:45:55.211Z,100857.75
2023-05-10T02:47:57.775Z,100856.91
2023-05-10T02:49:59.466Z,100854.38
2023-05-10T02:52:03.394Z,100851.69
2023-05-10T02:54:10.736Z,100853.38
2023-05-10T02:56:30.093Z,100845.22
2023-05-10T02:58:31.696Z,100846.19
2023-05-10T03:00:33.506Z,100837.16
2023-05-10T03:02:35.145Z,100846.91
2023-05-10T03:04:36.974Z,100837.16
2023-05-10T03:06:39.070Z,100837.00
2023-05-10T03:08:40.865Z,100839.69
2023-05-10T03:10:51.447Z,100836.16
2023-05-10T03:13:16.497Z,100832.63
2023-05-10T03:15:46.022Z,100829.94
2023-05-10T03:17:57.109Z,100827.38
2023-05-10T03:20:08.674Z,100837.00
2023-05-10T03:22:12.059Z,100830.78
2023-05-10T03:24:16.615Z,100828.94
2023-05-10T03:26:29.255Z,100837.84
2023-05-10T03:28:31.041Z,100836.00
2023-05-10T03:30:33.230Z,100842.25
2023-05-10T03:32:35.782Z,100840.41
2023-05-10T03:34:42.662Z,100838.69
2023-05-10T03:36:44.225Z,100836.00
2023-05-10T03:38:45.885Z,100842.25
2023-05-10T03:40:47.374Z,100839.56
2023-05-10T03:42:48.955Z,100830.63
2023-05-10T03:44:50.906Z,100836.88
2023-05-10T03:46:52.599Z,100839.56
2023-05-10T03:48:54.458Z,100837.56
2023-05-10T03:50:56.063Z,100830.34
2023-05-10T03:52:58.582Z,100833.03
2023-05-10T03:55:00.269Z,100833.03
2023-05-10T03:57:01.986Z,100841.09
2023-05-10T03:59:08.170Z,100835.72
2023-05-10T04:01:09.805Z,100839.28
2023-05-10T04:03:12.349Z,100830.34
2023-05-10T04:05:13.946Z,100828.66
2023-05-10T04:07:15.592Z,100832.19
2023-05-10T04:09:18.021Z,100823.47
2023-05-10T04:11:19.593Z,100817.94
2023-05-10T04:13:21.683Z,100826.69
2023-05-10T04:15:23.490Z,100822.16
2023-05-10T04:17:25.104Z,100824.84
2023-05-10T04:19:32.690Z,100831.06
2023-05-10T04:21:34.322Z,100826.53
2023-05-10T04:23:35.861Z,100824.69
2023-05-10T04:25:37.576Z,100819.50
2023-05-10T04:27:39.200Z,100821.16
2023-05-10T04:29:40.804Z,100826.53
2023-05-10T04:31:42.455Z,100821.34
2023-05-10T04:33:44.117Z,100821.34
2023-05-10T04:35:46.200Z,100818.66
2023-05-10T04:37:47.734Z,100819.50
2023-05-10T04:39:49.396Z,100829.22
2023-05-10T04:41:51.052Z,100822.84
2023-05-10T04:43:52.724Z,100822.84
2023-05-10T04:45:57.436Z,100827.25
2023-05-10T04:47:59.242Z,100828.94
2023-05-10T04:50:00.981Z,100812.00
2023-05-10T04:52:02.678Z,100816.66
2023-05-10T04:54:06.415Z,100821.88
2023-05-10T04:56:08.508Z,100810.31
2023-05-10T04:58:10.205Z,100813.97
2023-05-10T05:00:12.668Z,100822.00
2023-05-10T05:02:14.314Z,100816.66
2023-05-10T05:04:16.063Z,100805.78
2023-05-10T05:06:17.652Z,100810.31
2023-05-10T05:08:19.185Z,100817.38
2023-05-10T05:10:20.760Z,100820.75
2023-05-10T05:12:22.333Z,100821.59
2023-05-10T05:14:26.036Z,100816.25
2023-05-10T05:16:27.923Z,100816.25
2023-05-10T05:18:29.773Z,100810.16
2023-05-10T05:20:33.870Z,100812.00
2023-05-10T05:22:37.246Z,100818.19
2023-05-10T05:24:39.146Z,100812.84
2023-05-10T05:26:40.800Z,100816.38
2023-05-10T05:28:42.442Z,100819.03
2023-05-10T05:30:44.109Z,100817.19
2023-05-10T05:32:45.734Z,100825.13
2023-05-10T05:34:47.632Z,100824.13
2023-05-10T05:36:49.473Z,100824.13
2023-05-10T05:38:51.336Z,100826.81
2023-05-10T05:40:52.935Z,100826.81
2023-05-10T05:42:54.536Z,100829.78
2023-05-10T05:44:56.114Z,100842.91
2023-05-10T05:46:57.981Z,100839.41
2023-05-10T05:48:59.763Z,100835.88
2023-05-10T05:51:01.407Z,100838.56
2023-05-10T05:53:03.235Z,100839.41
2023-05-10T05:55:05.363Z,100835.72
2023-05-10T05:57:07.151Z,100846.44
2023-05-10T05:59:08.892Z,100844.63
2023-05-10T06:01:10.501Z,100840.94
2023-05-10T06:03:12.233Z,100833.75
2023-05-10T06:05:15.165Z,100844.31
2023-05-10T06:07:17.517Z,100847.88
2023-05-10T06:09:19.140Z,100853.25
2023-05-10T06:11:22.049Z,100838.94
2023-05-10T06:13:23.828Z,100842.63
2023-05-10T06:15:25.646Z,100845.31
2023-05-10T06:17:27.540Z,100844.47
2023-05-10T06:19:29.221Z,100841.78
2023-05-10T06:21:31.268Z,100850.69
2023-05-10T06:23:33.060Z,100848.84
2023-05-10T06:25:34.659Z,100857.75
2023-05-10T06:27:38.485Z,100862.13
2023-05-10T06:29:40.187Z,100857.63
2023-05-10T06:31:41.967Z,100862.97
2023-05-10T06:33:43.615Z,100862.13
2023-05-10T06:35:45.169Z,100856.78
2023-05-10T06:37:47.723Z,100863.09
2023-05-10T06:39:49.563Z,100862.13
2023-05-10T06:41:51.277Z,100863.09
2023-05-10T06:43:53.149Z,100864.81
2023-05-10T06:45:54.813Z,100862.97
2023-05-10T06:47:56.548Z,100862.25
2023-05-10T06:49:58.245Z,100862.13
2023-05-10T06:51:59.996Z,100858.47
2023-05-10T06:54:02.233Z,100865.53
2023-05-10T06:56:04.443Z,100868.22
2023-05-10T06:58:07.202Z,100866.41
2023-05-10T07:00:10.533Z,100866.41
2023-05-10T07:02:12.291Z,100873.59
2023-05-10T07:04:14.687Z,100878.09
2023-05-10T07:06:29.450Z,100871.88
2023-05-10T07:08:35.289Z,100863.97
2023-05-10T07:10:36.941Z,100871.03
2023-05-10T07:12:39.148Z,100877.16
2023-05-10T07:14:40.929Z,100870.03
2023-05-10T07:16:42.536Z,100878.97
2023-05-10T07:18:44.159Z,100886.91
2023-05-10T07:20:45.767Z,100889.56
2023-05-10T07:22:47.446Z,100886.16
2023-05-10T07:24:49.131Z,100897.63
2023-05-10T07:26:50.949Z,100882.38
2023-05-10T07:28:52.502Z,100888.72
2023-05-10T07:30:54.054Z,100887.91
2023-05-10T07:32:55.893Z,100885.22
2023-05-10T07:34:57.741Z,100891.41
2023-05-10T07:37:00.293Z,100889.69
2023-05-10T07:39:02.139Z,100879.84
2023-05-10T07:41:03.776Z,100885.06
2023-05-10T07:43:05.351Z,100890.41
2023-05-10T07:45:07.560Z,100893.94
2023-05-10T07:47:09.424Z,100889.41
2023-05-10T07:49:11.095Z,100896.50
2023-05-10T07:51:13.052Z,100898.47
2023-05-10T07:53:14.744Z,100894.94
2023-05-10T07:55:16.831Z,100899.31
2023-05-10T07:57:19.104Z,100893.09
2023-05-10T07:59:21.094Z,100900.16
2023-05-10T08:01:23.232Z,100898.47
2023-05-10T08:03:24.917Z,100902.16
2023-05-10T08:05:26.598Z,100901.16
2023-05-10T08:07:28.450Z,100899.19
2023-05-10T08:09:29.997Z,100901.88
2023-05-10T08:11:32.802Z,100899.19
2023-05-10T08:13:35.299Z,100900.72
2023-05-10T08:15:36.926Z,100904.09
2023-05-10T08:17:38.847Z,100907.31
2023-05-10T08:19:40.508Z,100909.03
2023-05-10T08:21:43.380Z,100914.91
2023-05-10T08:23:45.262Z,100911.78
2023-05-10T08:25:46.987Z,100915.13
2023-05-10T08:27:48.607Z,100918.63
2023-05-10T08:29:50.717Z,100921.28
2023-05-10T08:31:52.456Z,100919.53
2023-05-10T08:33:54.216Z,100918.06
2023-05-10T08:35:55.825Z,100925.44
2023-05-10T08:37:57.350Z,100933.22
2023-05-10T08:39:58.986Z,100932.91
2023-05-10T08:42:02.644Z,100936.69
2023-05-10T08:44:05.426Z,100943.63
2023-05-10T08:46:08.866Z,100941.47
2023-05-10T08:48:11.557Z,100943.03
2023-05-10T08:50:13.757Z,100939.31
2023-05-10T08:52:16.128Z,100951.09
2023-05-10T08:54:17.818Z,100951.16
2023-05-10T08:56:20.696Z,100953.03
2023-05-10T08:58:22.604Z,100962.00
2023-05-10T09:00:24.682Z,100956.63
2023-05-10T09:02:26.702Z,100963.59
2023-05-10T09:04:29.216Z,100966.19
2023-05-10T09:06:31.034Z,100967.06
2023-05-10T09:08:32.702Z,100964.13
2023-05-10T09:10:34.246Z,100977.28
2023-05-10T09:12:36.433Z,100972.63
2023-05-10T09:14:38.898Z,100976.56
2023-05-10T09:16:41.258Z,100973.63
2023-05-10T09:18:43.023Z,100985.34
2023-05-10T09:20:44.628Z,100986.66
2023-05-10T09:22:46.290Z,100985.09
2023-05-10T09:24:47.986Z,100987.91
2023-05-10T09:26:50.197Z,100994.28
2023-05-10T09:28:53.572Z,100990.03
2023-05-10T09:30:56.570Z,100995.56
2023-05-10T09:32:59.608Z,100997.53
2023-05-10T09:35:13.328Z,101003.19
2023-05-10T09:37:15.190Z,101003.34
2023-05-10T09:39:17.088Z,101005.47
2023-05-10T09:41:20.232Z,101009.00
2023-05-10T09:43:21.759Z,101012.94
2023-05-10T09:45:34.602Z,101009.97
2023-05-10T09:47:37.459Z,101007.00
2023-05-10T09:49:39.001Z,101014.63
2023-05-10T09:51:40.929Z,101020.53
2023-05-10T09:53:42.606Z,101006.06
2023-05-10T09:55:46.813Z,101015.66
2023-05-10T09:57:49.479Z,101011.84
2023-05-10T09:59:51.653Z,101011.41
2023-05-10T10:01:54.601Z,101019.22
2023-05-10T10:03:58.683Z,101022.50
2023-05-10T10:06:00.345Z,101019.69
2023-05-10T10:08:04.113Z,101022.13
2023-05-10T10:10:06.492Z,101024.38
2023-05-10T10:12:08.142Z,101015.88
2023-05-10T10:14:10.044Z,101016.50
2023-05-10T10:16:11.750Z,101025.69
2023-05-10T10:18:16.689Z,101019.00
2023-05-10T10:20:20.144Z,101020.13
2023-05-10T10:22:22.062Z,101017.72
2023-05-10T10:24:23.623Z,101026.78
2023-05-10T10:26:26.066Z,101023.25
2023-05-10T10:28:53.427Z,101020.28
2023-05-10T10:30:57.040Z,101019.16
2023-05-10T10:33:27.352Z,101015.13
2023-05-10T10:35:32.816Z,101010.03
2023-05-10T10:37:54.656Z,101015.69
2023-05-10T10:39:56.557Z,101006.06
2023-05-10T10:41:58.884Z,101016.16
2023-05-10T10:44:34.861Z,101019.13
2023-05-10T10:47:03.534Z,101014.44
2023-05-10T10:49:11.623Z,101010.22
2023-05-10T10:51:14.265Z,101012.22
2023-05-10T10:53:15.956Z,101015.88
2023-05-10T10:55:25.927Z,101014.50
2023-05-10T10:57:28.286Z,101014.78
2023-05-10T10:59:29.905Z,101024.09
2023-05-10T11:01:37.685Z,101011.38
2023-05-10T11:03:39.403Z,101019.84
2023-05-10T11:05:50.678Z,101021.28
2023-05-10T11:07:59.388Z,101014.63
2023-05-10T11:10:05.930Z,101020.34
2023-05-10T11:12:09.630Z,101014.81
2023-05-10T11:14:11.374Z,101011.38
2023-05-10T11:16:27.965Z,101013.53
2023-05-10T11:18:31.479Z,101021.16
2023-05-10T11:20:39.957Z,101013.72
2023-05-10T11:22:54.168Z,101013.59
2023-05-10T11:25:01.950Z,101010.78
2023-05-10T11:27:03.733Z,101012.06
2023-05-10T11:29:06.013Z,101015.19
2023-05-10T11:31:08.053Z,101011.94
2023-05-10T11:33:10.453Z,101012.22
2023-05-10T11:35:12.928Z,101009.66
2023-05-10T11:37:14.664Z,100999.22
2023-05-10T11:39:16.185Z,101008.44
2023-05-10T11:41:19.656Z,101000.66
2023-05-10T11:43:24.734Z,101001.75
2023-05-10T11:45:26.992Z,100994.81
2023-05-10T11:47:28.760Z,100991.41
2023-05-10T11:49:30.457Z,100995.94
2023-05-10T11:51:35.340Z,100997.06
2023-05-10T11:53:37.080Z,101002.44
2023-05-10T11:55:38.927Z,101000.78
2023-05-10T11:57:42.705Z,101006.13
2023-05-10T11:59:44.282Z,101000.63
2023-05-10T12:01:46.079Z,101008.28
2023-05-10T12:03:48.041Z,100998.38
2023-05-10T12:05:49.875Z,100995.41
2023-05-10T12:07:51.526Z,100991.41
2023-05-10T12:10:09.287Z,100994.50
2023-05-10T12:12:11.510Z,100989.22
2023-05-10T12:14:13.217Z,100995.16
2023-05-10T12:16:20.809Z,100995.59
2023-05-10T12:18:25.791Z,100991.34
2023-05-10T12:20:28.958Z,100998.31
2023-05-10T12:22:30.573Z,100991.00
2023-05-10T12:24:34.329Z,100996.25
2023-05-10T12:26:37.416Z,100999.22
2023-05-10T12:28:40.066Z,100997.09
2023-05-10T12:30:41.592Z,100995.41
2023-05-10T12:32:44.980Z,100998.25
2023-05-10T12:34:47.640Z,101000.66
2023-05-10T12:36:52.702Z,100995.41
2023-05-10T12:39:03.382Z,100990.31
2023-05-10T12:41:06.924Z,100990.47
2023-05-10T12:43:08.536Z,100989.63
2023-05-10T12:45:10.610Z,100985.94
2023-05-10T12:47:12.240Z,100987.22
2023-05-10T12:49:13.777Z,100994.13
2023-05-10T12:51:18.098Z,100995.97
2023-05-10T12:53:19.925Z,100992.44
2023-05-10T12:55:21.769Z,101008.84
2023-05-10T12:57:23.466Z,100997.41
2023-05-10T12:59:25.023Z,101001.91
2023-05-10T13:01:26.709Z,100994.00
2023-05-10T13:03:28.382Z,100997.31
2023-05-10T13:05:29.892Z,100997.91
2023-05-10T13:07:31.497Z,100988.94
2023-05-10T13:09:33.256Z,100997.81
2023-05-10T13:11:34.908Z,100993.97
2023-05-10T13:13:36.454Z,101002.97
2023-05-10T13:15:38.197Z,100996.69
2023-05-10T13:17:41.691Z,100989.44
2023-05-10T13:19:43.410Z,100989.13
2023-05-10T13:21:47.730Z,101000.28
2023-05-10T13:23:49.442Z,100993.59
2023-05-10T13:25:50.990Z,100997.91
2023-05-10T13:27:52.549Z,100999.28
2023-05-10T13:29:54.165Z,101003.34
2023-05-10T13:31:55.884Z,100996.81
2023-05-10T13:33:57.449Z,101000.72
2023-05-10T13:35:59.058Z,100987.59
2023-05-10T13:38:00.966Z,100992.13
2023-05-10T13:40:02.876Z,100990.88
2023-05-10T13:42:05.144Z,100984.81
2023-05-10T13:44:06.771Z,100991.13
2023-05-10T13:46:08.429Z,100979.81
2023-05-10T13:48:10.162Z,100978.47
2023-05-10T13:50:11.898Z,100983.97
2023-05-10T13:52:13.522Z,100975.22
2023-05-10T13:54:15.117Z,100973.13
2023-05-10T13:56:16.853Z,100977.63
2023-05-10T13:58:18.610Z,100968.75
2023-05-10T14:00:20.603Z,100971.91
2023-05-10T14:02:22.261Z,100970.06
2023-05-10T14:04:23.891Z,100972.75
2023-05-10T14:06:25.471Z,100965.69
2023-05-10T14:08:28.009Z,100974.47
2023-05-10T14:10:29.674Z,100973.50
2023-05-10T14:12:31.496Z,100970.72
2023-05-10T14:14:33.186Z,100973.94
2023-05-10T14:16:34.755Z,100964.91
2023-05-10T14:18:36.547Z,100968.56
2023-05-10T14:20:38.201Z,100950.19
2023-05-10T14:22:39.771Z,100956.41
2023-05-10T14:24:41.630Z,100955.56
2023-05-10T14:26:43.230Z,100954.84
2023-05-10T14:28:44.805Z,100949.75
2023-05-10T14:30:47.176Z,100958.03
2023-05-10T14:32:48.752Z,100951.84
2023-05-10T14:34:50.470Z,100954.78
2023-05-10T14:36:52.042Z,100952.22
2023-05-10T14:38:53.599Z,100952.34
2023-05-10T14:40:55.452Z,100951.47
2023-05-10T14:42:57.454Z,100943.44
2023-05-10T14:44:59.026Z,100944.59
2023-05-10T14:47:00.746Z,100943.00
2023-05-10T14:49:02.306Z,100934.84
2023-05-10T14:51:04.603Z,100941.19
2023-05-10T14:53:06.329Z,100942.41
2023-05-10T14:55:08.419Z,100939.75
2023-05-10T14:57:09.980Z,100939.00
2023-05-10T14:59:11.599Z,100944.25
2023-05-10T15:01:13.685Z,100940.25
2023-05-10T15:03:16.410Z,100939.59
2023-05-10T15:05:18.965Z,100944.34
2023-05-10T15:07:20.909Z,100939.09
2023-05-10T15:09:22.418Z,100933.63
2023-05-10T15:11:23.943Z,100936.06
2023-05-10T15:13:25.907Z,100932.50
2023-05-10T15:15:27.549Z,100931.91
2023-05-10T15:17:29.189Z,100939.25
2023-05-10T15:19:30.774Z,100931.06
2023-05-10T15:21:38.548Z,100931.47
2023-05-10T15:23:40.294Z,100940.34
2023-05-10T15:25:41.913Z,100939.72
2023-05-10T15:27:44.656Z,100931.94
2023-05-10T15:29:46.491Z,100935.34
2023-05-10T15:31:49.239Z,100933.28
2023-05-10T15:33:50.789Z,100943.97
2023-05-10T15:35:54.490Z,100946.16
2023-05-10T15:37:56.079Z,100939.97
2023-05-10T15:40:04.322Z,100949.94
2023-05-10T15:42:06.290Z,100950.56
2023-05-10T15:44:07.927Z,100951.91
2023-05-10T15:46:09.523Z,100949.50
2023-05-10T15:48:11.189Z,100952.91
2023-05-10T15:50:12.952Z,100956.06
2023-05-10T15:52:14.612Z,100952.91
2023-05-10T15:54:16.259Z,100958.25
2023-05-10T15:56:18.050Z,100963.75
2023-05-10T15:58:19.650Z,100961.06
2023-05-10T16:00:21.440Z,100957.41
2023-05-10T16:02:23.527Z,100960.94
2023-05-10T16:04:25.849Z,100965.69
2023-05-10T16:06:27.421Z,100959.50
2023-05-10T16:08:33.710Z,100958.25
2023-05-10T16:10:35.408Z,100959.72
2023-05-10T16:12:37.098Z,100954.38
2023-05-10T16:14:38.723Z,100962.88
2023-05-10T16:16:41.302Z,100966.13
2023-05-10T16:18:43.112Z,100968.94
2023-05-10T16:20:45.008Z,100970.78
2023-05-10T16:22:46.729Z,100979.16
2023-05-10T16:24:48.364Z,100970.53
2023-05-10T16:26:49.991Z,100972.63
2023-05-10T16:28:52.236Z,100977.81
2023-05-10T16:30:53.972Z,100981.13
2023-05-10T16:32:56.467Z,100979.91
2023-05-10T16:34:58.933Z,100986.69
2023-05-10T16:37:00.683Z,100985.84
2023-05-10T16:39:02.735Z,100986.34
2023-05-10T16:41:07.428Z,100995.19
2023-05-10T16:43:08.985Z,100986.34
2023-05-10T16:45:11.294Z,100993.88
2023-05-10T16:47:12.938Z,100989.63
2023-05-10T16:49:14.635Z,100984.53
2023-05-10T16:51:16.322Z,100985.50
2023-05-10T16:53:18.123Z,100982.47
2023-05-10T16:55:19.865Z,100980.66
2023-05-10T16:57:21.650Z,100972.00
2023-05-10T16:59:23.248Z,100986.00
2023-05-10T17:01:26.958Z,100983.19
2023-05-10T17:03:28.851Z,100980.03
2023-05-10T17:05:30.545Z,100977.34
2023-05-10T17:07:32.063Z,100973.34
2023-05-10T17:09:33.549Z,100968.84
2023-05-10T17:11:35.365Z,100979.53
2023-05-10T17:13:38.774Z,100978.19
2023-05-10T17:15:40.472Z,100976.28
2023-05-10T17:17:42.184Z,100970.53
2023-05-10T17:19:46.986Z,100970.19
2023-05-10T17:21:48.609Z,100970.88
2023-05-10T17:23:50.265Z,100975.16
2023-05-10T17:25:51.871Z,100978.56
2023-05-10T17:27:53.386Z,100974.31
2023-05-10T17:29:58.258Z,100979.91
2023-05-10T17:32:00.198Z,100977.09
2023-05-10T17:34:04.028Z,100980.00
2023-05-10T17:36:07.516Z,100979.75
2023-05-10T17:38:09.138Z,100987.19
2023-05-10T17:40:11.499Z,100983.91
2023-05-10T17:42:13.774Z,100984.88
2023-05-10T17:44:15.632Z,100982.94
2023-05-10T17:46:17.973Z,100981.75
2023-05-10T17:48:19.734Z,100986.59
2023-05-10T17:50:21.349Z,100992.19
2023-05-10T17:52:23.053Z,100986.75
2023-05-10T17:54:24.605Z,100990.97
2023-05-10T17:56:26.266Z,100993.03
2023-05-10T17:58:28.226Z,100987.09
2023-05-10T18:00:30.055Z,100992.44
2023-05-10T18:02:31.823Z,100993.91
2023-05-10T18:04:33.593Z,101003.63
2023-05-10T18:06:38.319Z,101002.63
2023-05-10T18:08:39.962Z,101006.06
2023-05-10T18:10:41.817Z,101009.56
2023-05-10T18:12:43.599Z,101008.84
2023-05-10T18:14:45.168Z,101007.13
2023-05-10T18:16:47.230Z,101015.28
2023-05-10T18:18:49.020Z,101011.75
2023-05-10T18:20:56.438Z,101019.66
2023-05-10T18:22:58.506Z,101025.50
2023-05-10T18:25:00.250Z,101023.66
2023-05-10T18:27:02.010Z,101025.50
2023-05-10T18:29:03.834Z,101026.34
2023-05-10T18:31:05.518Z,101017.22
2023-05-10T18:33:07.592Z,101019.91
2023-05-10T18:35:09.597Z,101025.34
2023-05-10T18:37:11.389Z,101020.50
2023-05-10T18:39:13.421Z,101027.31
2023-05-10T18:41:15.142Z,101028.38
2023-05-10T18:43:16.784Z,101026.34
2023-05-10T18:45:18.548Z,101031.06
2023-05-10T18:47:20.528Z,101029.72
2023-05-10T18:49:22.170Z,101040.41
2023-05-10T18:51:24.413Z,101041.41
2023-05-10T18:53:26.448Z,101042.13
2023-05-10T18:55:28.462Z,101040.19
2023-05-10T18:57:30.093Z,101041.16
2023-05-10T18:59:32.073Z,101046.59
2023-05-10T19:01:33.673Z,101047.59
2023-05-10T19:03:35.895Z,101055.50
2023-05-10T19:05:37.398Z,101053.69
2023-05-10T19:07:40.520Z,101050.16
2023-05-10T19:09:42.084Z,101061.69
2023-05-10T19:11:43.686Z,101061.78
2023-05-10T19:13:46.044Z,101055.59
2023-05-10T19:15:53.131Z,101066.53
2023-05-10T19:17:55.874Z,101059.69
2023-05-10T19:19:59.517Z,101065.16
2023-05-10T19:22:01.692Z,101065.91
2023-05-10T19:24:03.557Z,101072.94
2023-05-10T19:26:05.681Z,101076.38
2023-05-10T19:28:08.946Z,101077.13
2023-05-10T19:30:11.509Z,101075.41
2023-05-10T19:32:13.360Z,101081.34
2023-05-10T19:34:15.296Z,101080.16
2023-05-10T19:36:17.186Z,101079.94
2023-05-10T19:38:25.336Z,101083.94
2023-05-10T19:40:27.440Z,101091.94
2023-05-10T19:42:29.192Z,101084.19
2023-05-10T19:44:31.703Z,101100.22
2023-05-10T19:46:33.564Z,101096.13
2023-05-10T19:48:35.986Z,101107.91
2023-05-10T19:50:38.267Z,101099.53
2023-05-10T19:52:40.325Z,101107.91
2023-05-10T19:54:42.811Z,101105.84
2023-05-10T19:56:44.368Z,101109.13
2023-05-10T19:58:46.078Z,101104.28
2023-05-10T20:00:47.733Z,101113.03
2023-05-10T20:02:49.488Z,101114.63
2023-05-10T20:04:51.280Z,101118.75
2023-05-10T20:06:52.997Z,101128.34
2023-05-10T20:08:54.720Z,101123.84
2023-05-10T20:10:58.884Z,101127.25
2023-05-10T20:13:00.610Z,101132.38
2023-05-10T20:15:02.765Z,101131.28
2023-05-10T20:17:04.880Z,101131.88
2023-05-10T20:19:06.875Z,101133.44
2023-05-10T20:21:08.510Z,101129.56
2023-05-10T20:23:10.163Z,101129.41
2023-05-10T20:25:11.979Z,101129.16
2023-05-10T20:27:13.829Z,101140.63
2023-05-10T20:29:15.485Z,101132.34
2023-05-10T20:31:17.411Z,101134.03
2023-05-10T20:33:19.232Z,101135.72
2023-05-10T20:35:20.881Z,101139.97
2023-05-10T20:37:23.405Z,101136.31
2023-05-10T20:39:24.987Z,101137.06
2023-05-10T20:41:26.621Z,101138.63
2023-05-10T20:43:29.142Z,101136.69
2023-05-10T20:45:30.817Z,101146.28
2023-05-10T20:47:32.572Z,101148.69
2023-05-10T20:49:35.466Z,101145.91
2023-05-10T20:51:37.130Z,101143.09
2023-05-10T20:53:38.638Z,101152.84
2023-05-10T20:55:40.426Z,101147.34
2023-05-10T20:57:42.098Z,101153.44
2023-05-10T20:59:43.816Z,101158.66
2023-05-10T21:01:45.695Z,101156.84
2023-05-10T21:03:47.259Z,101151.38
2023-05-10T21:05:48.856Z,101155.66
2023-05-10T21:07:54.070Z,101160.03
2023-05-10T21:09:55.632Z,101158.09
2023-05-10T21:11:57.770Z,101153.44
2023-05-10T21:13:59.290Z,101157.69
2023-05-10T21:16:01.180Z,101157.56
2023-05-10T21:18:02.855Z,101162.81
2023-05-10T21:20:05.229Z,101167.16
2023-05-10T21:22:07.618Z,101166.22
2023-05-10T21:24:09.280Z,101164.38
2023-05-10T21:26:10.817Z,101166.06
2023-05-10T21:28:12.602Z,101166.81
2023-05-10T21:30:14.610Z,101169.50
2023-05-10T21:32:16.484Z,101166.56
2023-05-10T21:34:18.084Z,101166.41
2023-05-10T21:36:19.850Z,101170.66
2023-05-10T21:38:21.491Z,101167.84
2023-05-10T21:40:23.938Z,101168.59
2023-05-10T21:42:25.566Z,101168.59
2023-05-10T21:44:27.143Z,101169.31
2023-05-10T21:46:28.748Z,101167.47
2023-05-10T21:48:30.856Z,101169.16
2023-05-10T21:50:32.576Z,101167.34
2023-05-10T21:52:34.171Z,101178.91
2023-05-10T21:54:37.252Z,101172.59
2023-05-10T21:56:38.825Z,101177.81
2023-05-10T21:58:40.831Z,101181.22
2023-05-10T22:00:42.460Z,101182.91
2023-05-10T22:02:44.182Z,101175.59
2023-05-10T22:04:45.814Z,101177.28
2023-05-10T22:06:47.854Z,101174.50
2023-05-10T22:08:49.412Z,101177.03
2023-05-10T22:10:51.963Z,101179.56
2023-05-10T22:12:53.532Z,101181.31
2023-05-10T22:15:09.413Z,101173.25
2023-05-10T22:17:12.291Z,101170.56
2023-05-10T22:19:13.944Z,101168.75
2023-05-10T22:21:15.553Z,101174.94
2023-05-10T22:23:17.087Z,101167.63
2023-05-10T22:25:18.636Z,101174.69
2023-05-10T22:27:20.383Z,101175.41
2023-05-10T22:29:22.750Z,101171.75
2023-05-10T22:31:24.474Z,101166.25
2023-05-10T22:33:26.121Z,101173.31
2023-05-10T22:35:27.763Z,101165.28
2023-05-10T22:37:29.434Z,101171.34
2023-05-10T22:39:31.078Z,101169.53
2023-05-10T22:41:34.047Z,101173.06
2023-05-10T22:43:35.673Z,101167.72
2023-05-10T22:45:37.406Z,101173.06
2023-05-10T22:47:39.419Z,101173.78
2023-05-10T22:49:41.028Z,101170.13
2023-05-10T22:51:42.571Z,101170.97
2023-05-10T22:53:44.158Z,101164.63
2023-05-10T22:55:47.068Z,101171.69
2023-05-10T22:57:48.682Z,101175.09
2023-05-10T22:59:50.214Z,101170.56
2023-05-10T23:01:51.794Z,101173.13
2023-05-10T23:03:53.461Z,101167.19
2023-05-10T23:05:54.968Z,101173.25
2023-05-10T23:07:56.627Z,101172.16
2023-05-10T23:09:58.264Z,101177.50
2023-05-10T23:11:59.909Z,101174.81
2023-05-10T23:14:01.655Z,101172.16
2023-05-10T23:16:06.768Z,101167.41
2023-05-10T23:18:09.685Z,101172.75
2023-05-10T23:20:12.197Z,101175.44
2023-05-10T23:22:13.798Z,101173.50
2023-05-10T23:24:15.426Z,101177.88